createdAt,value
2019-01-25T00:01:46.945Z,26.83
2019-01-25T00:04:31.049Z,23.83
2019-01-25T00:07:15.198Z,27.00
2019-01-25T00:10:00.265Z,25.27
2019-01-25T00:12:42.738Z,26.77
2019-01-25T00:15:27.520Z,27.20
2019-01-25T00:18:12.498Z,25.10
2019-01-25T00:20:57.510Z,26.57
2019-01-25T00:23:42.633Z,26.87
2019-01-25T00:26:27.774Z,25.43
2019-01-25T00:29:12.858Z,27.00
2019-01-25T00:31:57.297Z,26.33
2019-01-25T00:34:39.717Z,25.17
2019-01-25T00:37:31.058Z,25.67
2019-01-25T00:40:15.797Z,22.70
2019-01-25T00:43:00.662Z,25.53
2019-01-25T00:45:44.870Z,24.10
2019-01-25T00:48:29.941Z,26.17
2019-01-25T00:51:14.982Z,26.13
2019-01-25T00:54:00.077Z,28.07
2019-01-25T00:56:45.001Z,25.23
2019-01-25T00:59:29.986Z,27.40
2019-01-25T01:02:12.460Z,28.17
2019-01-25T01:05:04.119Z,25.43
2019-01-25T01:07:50.870Z,26.60
2019-01-25T01:10:35.140Z,26.20
2019-01-25T01:13:20.151Z,27.57
2019-01-25T01:16:05.081Z,28.03
2019-01-25T01:18:50.112Z,28.50
2019-01-25T01:21:34.253Z,26.40
2019-01-25T01:24:16.707Z,29.63
2019-01-25T01:27:01.402Z,31.43
2019-01-25T01:29:46.399Z,29.10
2019-01-25T01:32:30.620Z,30.03
2019-01-25T01:35:14.888Z,28.97
2019-01-25T01:37:59.895Z,31.07
2019-01-25T01:40:42.339Z,32.27
2019-01-25T01:43:33.654Z,31.87
2019-01-25T01:46:18.394Z,30.23
2019-01-25T01:49:03.390Z,30.53
2019-01-25T01:51:48.311Z,31.23
2019-01-25T01:54:32.521Z,32.07
2019-01-25T01:57:17.490Z,31.30
2019-01-25T01:59:59.947Z,32.93
2019-01-25T02:02:44.549Z,31.37
2019-01-25T02:05:28.688Z,32.70
2019-01-25T02:08:13.630Z,29.17
2019-01-25T02:10:58.551Z,30.10
2019-01-25T02:13:42.810Z,32.43
2019-01-25T02:16:27.904Z,30.17
2019-01-25T02:19:12.901Z,31.33
2019-01-25T02:21:57.982Z,33.97
2019-01-25T02:24:43.022Z,33.27
2019-01-25T02:27:27.977Z,33.20
2019-01-25T02:30:12.239Z,32.53
2019-01-25T02:32:57.274Z,32.43
2019-01-25T02:35:42.279Z,31.93
2019-01-25T02:38:26.518Z,32.00
2019-01-25T02:41:11.469Z,32.77
2019-01-25T02:43:55.786Z,32.67
2019-01-25T02:46:40.667Z,35.67
2019-01-25T02:49:24.859Z,33.63
2019-01-25T02:52:09.929Z,34.17
2019-01-25T02:54:52.347Z,33.93
2019-01-25T02:57:37.009Z,32.57
2019-01-25T03:00:22.089Z,34.13
2019-01-25T03:03:07.171Z,34.40
2019-01-25T03:05:52.103Z,35.80
2019-01-25T03:08:37.196Z,33.97
2019-01-25T03:11:21.370Z,35.80
2019-01-25T03:14:05.585Z,37.27
2019-01-25T03:16:50.521Z,35.10
2019-01-25T03:19:35.514Z,35.37
2019-01-25T03:22:20.625Z,34.53
2019-01-25T03:25:03.776Z,36.20
2019-01-25T03:27:48.759Z,36.63
2019-01-25T03:30:33.168Z,36.73
2019-01-25T03:33:18.240Z,36.07
2019-01-25T03:36:02.334Z,37.80
2019-01-25T03:38:46.763Z,35.17
2019-01-25T03:41:31.801Z,36.50
2019-01-25T03:44:16.810Z,35.63
2019-01-25T03:47:01.854Z,36.50
2019-01-25T03:49:44.318Z,37.90
2019-01-25T03:52:29.104Z,37.10
2019-01-25T03:55:14.095Z,36.07
2019-01-25T03:57:59.161Z,37.63
2019-01-25T04:00:44.116Z,35.83
2019-01-25T04:03:28.364Z,38.60
2019-01-25T04:06:13.422Z,36.40
2019-01-25T04:08:58.445Z,37.37
2019-01-25T04:11:43.502Z,38.10
2019-01-25T04:14:28.534Z,37.77
2019-01-25T04:17:13.451Z,36.07
2019-01-25T04:19:58.376Z,36.80
2019-01-25T04:22:43.397Z,37.80
2019-01-25T04:25:28.466Z,39.47
2019-01-25T04:28:13.409Z,36.90
2019-01-25T04:30:58.309Z,37.83
2019-01-25T04:33:40.758Z,39.47
2019-01-25T04:36:32.177Z,40.13
2019-01-25T04:39:16.555Z,38.30
2019-01-25T04:42:01.746Z,38.07
2019-01-25T04:44:46.600Z,37.00
2019-01-25T04:47:30.850Z,37.97
2019-01-25T04:50:15.830Z,36.97
2019-01-25T04:52:58.326Z,36.87
2019-01-25T04:55:49.655Z,37.83
2019-01-25T04:58:34.237Z,38.57
2019-01-25T05:01:19.225Z,41.07
2019-01-25T05:04:03.410Z,39.67
2019-01-25T05:06:48.345Z,38.60
2019-01-25T05:09:33.695Z,39.43
2019-01-25T05:12:18.307Z,41.57
2019-01-25T05:15:03.433Z,37.67
2019-01-25T05:17:48.804Z,40.47
2019-01-25T05:20:33.632Z,40.60
2019-01-25T05:23:18.021Z,40.00
2019-01-25T05:26:02.259Z,39.07
2019-01-25T05:28:46.999Z,39.83
2019-01-25T05:31:32.216Z,35.63
2019-01-25T05:34:17.277Z,42.77
2019-01-25T05:37:02.283Z,41.00
2019-01-25T05:39:47.336Z,39.70
2019-01-25T05:42:32.391Z,37.37
2019-01-25T05:45:17.479Z,37.33
2019-01-25T05:48:02.400Z,39.77
2019-01-25T05:50:46.712Z,37.20
2019-01-25T05:53:31.827Z,37.03
2019-01-25T05:56:16.556Z,39.47
2019-01-25T05:59:01.328Z,34.53
2019-01-25T06:01:46.087Z,37.73
2019-01-25T06:04:30.870Z,38.13
2019-01-25T06:07:15.721Z,36.43
2019-01-25T06:10:00.621Z,36.70
2019-01-25T06:12:45.457Z,37.90
2019-01-25T06:15:30.550Z,38.60
2019-01-25T06:18:15.456Z,36.60
2019-01-25T06:21:00.551Z,38.13
2019-01-25T06:23:45.449Z,38.20
2019-01-25T06:26:29.671Z,40.13
2019-01-25T06:29:14.638Z,38.50
2019-01-25T06:31:59.655Z,39.20
2019-01-25T06:34:44.646Z,37.00
2019-01-25T06:37:29.583Z,40.13
2019-01-25T06:40:14.497Z,37.33
2019-01-25T06:42:59.180Z,37.47
2019-01-25T06:45:44.142Z,36.63
2019-01-25T06:48:28.862Z,36.60
2019-01-25T06:51:13.614Z,38.07
2019-01-25T06:53:58.538Z,37.47
2019-01-25T06:56:43.315Z,37.43
2019-01-25T06:59:35.753Z,37.80
2019-01-25T07:02:25.584Z,37.40
2019-01-25T07:05:10.333Z,36.03
2019-01-25T07:07:55.360Z,37.63
2019-01-25T07:10:39.495Z,38.47
2019-01-25T07:13:24.413Z,36.93
2019-01-25T07:16:09.520Z,36.03
2019-01-25T07:18:54.613Z,36.07
2019-01-25T07:21:39.427Z,37.23
2019-01-25T07:24:24.570Z,37.10
2019-01-25T07:27:09.700Z,36.73
2019-01-25T07:29:54.834Z,36.23
2019-01-25T07:32:39.940Z,39.10
2019-01-25T07:35:24.990Z,38.97
2019-01-25T07:38:10.036Z,38.47
2019-01-25T07:40:54.927Z,41.77
2019-01-25T07:43:39.965Z,37.03
2019-01-25T07:46:25.159Z,36.00
2019-01-25T07:49:10.186Z,38.33
2019-01-25T07:51:54.459Z,38.83
2019-01-25T07:54:26.196Z,39.47
2019-01-25T07:56:57.830Z,40.57
2019-01-25T07:59:29.456Z,37.67
2019-01-25T08:02:01.154Z,38.10
2019-01-25T08:04:32.882Z,35.87
2019-01-25T08:07:04.599Z,36.67
2019-01-25T08:09:36.348Z,36.30
2019-01-25T08:12:08.424Z,38.53
2019-01-25T08:14:40.241Z,36.27
2019-01-25T08:17:11.906Z,34.03
2019-01-25T08:19:43.649Z,37.23
2019-01-25T08:22:15.301Z,36.53
2019-01-25T08:24:46.936Z,35.20
2019-01-25T08:27:18.593Z,37.37
2019-01-25T08:29:50.222Z,36.50
2019-01-25T08:32:21.966Z,36.40
2019-01-25T08:34:53.864Z,34.77
2019-01-25T08:37:25.493Z,33.57
2019-01-25T08:39:57.259Z,33.83
2019-01-25T08:42:28.955Z,34.27
2019-01-25T08:45:01.070Z,35.27
2019-01-25T08:47:32.939Z,36.90
2019-01-25T08:50:07.794Z,37.87
2019-01-25T08:52:39.602Z,39.90
2019-01-25T08:55:11.540Z,44.57
2019-01-25T08:57:43.278Z,39.90
2019-01-25T09:00:18.113Z,35.43
2019-01-25T09:02:50.274Z,34.20
2019-01-25T09:05:22.211Z,36.40
2019-01-25T09:07:53.846Z,33.33
2019-01-25T09:10:25.527Z,36.33
2019-01-25T09:12:57.159Z,33.97
2019-01-25T09:15:29.065Z,33.30
2019-01-25T09:18:00.914Z,32.43
2019-01-25T09:20:32.555Z,34.57
2019-01-25T09:23:04.214Z,33.63
2019-01-25T09:25:35.866Z,33.37
2019-01-25T09:28:07.511Z,31.07
2019-01-25T09:30:39.136Z,31.70
2019-01-25T09:33:10.865Z,31.57
2019-01-25T09:35:42.513Z,35.03
2019-01-25T09:38:14.176Z,35.70
2019-01-25T09:40:45.935Z,34.30
2019-01-25T09:43:17.585Z,33.83
2019-01-25T09:45:49.342Z,35.43
2019-01-25T09:48:20.995Z,35.33
2019-01-25T09:50:53.079Z,34.07
2019-01-25T09:53:25.149Z,34.57
2019-01-25T09:55:56.777Z,34.67
2019-01-25T09:58:28.422Z,35.13
2019-01-25T10:01:06.232Z,36.87
2019-01-25T10:03:37.890Z,34.93
2019-01-25T10:06:10.168Z,34.87
2019-01-25T10:08:42.555Z,36.17
2019-01-25T10:11:14.783Z,36.63
2019-01-25T10:13:46.510Z,37.40
2019-01-25T10:16:18.256Z,37.57
2019-01-25T10:18:49.905Z,33.40
2019-01-25T10:21:21.528Z,33.73
2019-01-25T10:23:53.201Z,36.53
2019-01-25T10:26:24.841Z,32.60
2019-01-25T10:28:56.503Z,33.17
2019-01-25T10:31:28.128Z,32.80
2019-01-25T10:33:59.769Z,35.27
2019-01-25T10:36:31.506Z,33.77
2019-01-25T10:39:06.393Z,34.77
2019-01-25T10:41:38.044Z,35.20
2019-01-25T10:44:09.785Z,32.67
2019-01-25T10:46:41.517Z,34.63
2019-01-25T10:49:13.175Z,35.37
2019-01-25T10:51:44.806Z,34.17
2019-01-25T10:54:16.480Z,34.50
2019-01-25T10:56:48.138Z,37.40
2019-01-25T10:59:19.782Z,36.20
2019-01-25T11:01:51.412Z,35.23
2019-01-25T11:04:23.082Z,31.60
2019-01-25T11:06:54.726Z,33.53
2019-01-25T11:09:26.371Z,32.27
2019-01-25T11:11:58.013Z,30.43
2019-01-25T11:14:29.671Z,30.43
2019-01-25T11:17:01.713Z,29.30
2019-01-25T11:19:34.014Z,29.37
2019-01-25T11:22:05.740Z,32.57
2019-01-25T11:24:37.427Z,31.40
2019-01-25T11:27:09.064Z,31.93
2019-01-25T11:29:40.728Z,30.37
2019-01-25T11:32:12.381Z,33.70
2019-01-25T11:34:44.038Z,34.73
2019-01-25T11:37:15.670Z,35.20
2019-01-25T11:39:49.152Z,32.50
2019-01-25T11:42:20.832Z,35.93
2019-01-25T11:44:52.473Z,32.37
2019-01-25T11:47:24.116Z,34.80
2019-01-25T11:49:55.793Z,33.73
2019-01-25T11:52:27.436Z,32.90
2019-01-25T11:54:59.085Z,34.57
2019-01-25T11:57:30.713Z,35.50
2019-01-25T12:00:04.692Z,36.23
2019-01-25T12:02:36.453Z,34.73
2019-01-25T12:05:11.158Z,33.27
2019-01-25T12:07:42.809Z,35.47
2019-01-25T12:10:15.506Z,35.10
2019-01-25T12:12:47.156Z,35.47
2019-01-25T12:15:19.017Z,36.57
2019-01-25T12:17:50.844Z,35.20
2019-01-25T12:20:27.015Z,34.93
2019-01-25T12:22:58.754Z,37.77
2019-01-25T12:25:30.608Z,37.20
2019-01-25T12:28:05.393Z,35.40
2019-01-25T12:30:38.251Z,34.80
2019-01-25T12:33:10.062Z,37.00
2019-01-25T12:35:42.750Z,37.87
2019-01-25T12:38:14.495Z,34.67
2019-01-25T12:40:46.124Z,35.43
2019-01-25T12:43:23.876Z,33.77
2019-01-25T12:45:51.321Z,33.53
2019-01-25T12:48:22.948Z,34.40
2019-01-25T12:51:16.903Z,34.73
2019-01-25T12:53:48.757Z,34.43
2019-01-25T12:56:20.509Z,34.47
2019-01-25T12:58:52.329Z,33.30
2019-01-25T13:01:23.969Z,35.70
2019-01-25T13:03:55.598Z,36.77
2019-01-25T13:06:27.233Z,36.10
2019-01-25T13:08:58.864Z,32.43
2019-01-25T13:11:30.508Z,32.17
2019-01-25T13:14:02.153Z,34.97
2019-01-25T13:16:33.915Z,34.00
2019-01-25T13:19:05.533Z,31.27
2019-01-25T13:21:37.182Z,30.80
2019-01-25T13:24:08.836Z,31.57
2019-01-25T13:26:40.481Z,31.00
2019-01-25T13:29:12.108Z,33.60
2019-01-25T13:31:43.957Z,33.17
2019-01-25T13:34:15.693Z,35.20
2019-01-25T13:36:47.736Z,32.37
2019-01-25T13:39:19.492Z,32.13
2019-01-25T13:41:51.165Z,30.07
2019-01-25T13:44:22.896Z,30.73
2019-01-25T13:46:54.533Z,30.87
2019-01-25T13:49:26.174Z,31.47
2019-01-25T13:51:57.812Z,27.53
2019-01-25T13:54:29.523Z,31.13
2019-01-25T13:57:01.241Z,31.23
2019-01-25T13:59:32.860Z,34.00
2019-01-25T14:02:04.601Z,34.13
2019-01-25T14:04:36.249Z,30.10
2019-01-25T14:07:07.901Z,31.13
2019-01-25T14:09:39.546Z,28.17
2019-01-25T14:12:11.214Z,31.83
2019-01-25T14:14:42.873Z,29.60
2019-01-25T14:17:14.529Z,31.77
2019-01-25T14:19:46.166Z,27.40
2019-01-25T14:22:17.798Z,29.30
2019-01-25T14:24:49.416Z,29.80
2019-01-25T14:27:21.077Z,31.50
2019-01-25T14:29:52.721Z,29.33
2019-01-25T14:32:24.363Z,30.23
2019-01-25T14:34:56.001Z,31.40
2019-01-25T14:37:27.650Z,30.23
2019-01-25T14:39:59.545Z,28.93
2019-01-25T14:42:31.194Z,27.23
2019-01-25T14:45:04.086Z,27.00
2019-01-25T14:47:35.717Z,31.43
2019-01-25T14:50:10.915Z,28.30
2019-01-25T14:52:42.669Z,33.23
2019-01-25T14:55:14.418Z,28.43
2019-01-25T14:57:46.990Z,28.03
2019-01-25T15:00:18.718Z,31.37
2019-01-25T15:02:50.367Z,31.23
2019-01-25T15:05:22.002Z,29.47
2019-01-25T15:07:53.628Z,29.93
2019-01-25T15:10:25.448Z,28.43
2019-01-25T15:12:57.497Z,26.30
2019-01-25T15:15:29.354Z,26.20
2019-01-25T15:18:00.980Z,29.73
2019-01-25T15:20:32.628Z,28.40
2019-01-25T15:23:04.258Z,28.70
2019-01-25T15:25:35.897Z,28.97
2019-01-25T15:28:07.550Z,26.50
2019-01-25T15:30:39.269Z,28.23
2019-01-25T15:33:12.558Z,27.57
2019-01-25T15:35:44.351Z,28.30
2019-01-25T15:38:16.209Z,26.90
2019-01-25T15:40:47.861Z,30.00
2019-01-25T15:43:19.526Z,25.10
2019-01-25T15:45:51.202Z,28.80
2019-01-25T15:48:22.903Z,28.63
2019-01-25T15:50:54.546Z,29.73
2019-01-25T15:53:26.173Z,26.63
2019-01-25T15:55:57.806Z,29.03
2019-01-25T15:58:29.460Z,27.77
2019-01-25T16:01:01.185Z,24.93
2019-01-25T16:03:32.836Z,26.17
2019-01-25T16:06:04.571Z,26.40
2019-01-25T16:08:36.245Z,25.90
2019-01-25T16:11:07.866Z,24.43
2019-01-25T16:13:39.529Z,24.37
2019-01-25T16:16:11.193Z,24.80
2019-01-25T16:18:42.836Z,25.23
2019-01-25T16:21:15.513Z,27.43
2019-01-25T16:23:48.297Z,26.33
2019-01-25T16:26:21.302Z,27.00
2019-01-25T16:28:52.946Z,27.20
2019-01-25T16:31:24.618Z,27.10
2019-01-25T16:33:56.693Z,27.13
2019-01-25T16:36:29.380Z,28.07
2019-01-25T16:39:01.011Z,26.47
2019-01-25T16:41:32.680Z,26.53
2019-01-25T16:44:04.871Z,26.47
2019-01-25T16:46:37.010Z,29.60
2019-01-25T16:49:08.830Z,24.33
2019-01-25T16:51:40.508Z,26.87
2019-01-25T16:54:12.183Z,28.87
2019-01-25T16:56:43.824Z,31.60
2019-01-25T16:59:15.497Z,28.80
2019-01-25T17:01:47.139Z,31.50
2019-01-25T17:04:18.808Z,31.53
2019-01-25T17:06:50.452Z,30.73
2019-01-25T17:09:22.170Z,31.87
2019-01-25T17:11:53.835Z,30.40
2019-01-25T17:14:33.017Z,31.77
2019-01-25T17:16:59.138Z,33.10
2019-01-25T17:19:30.795Z,30.77
2019-01-25T17:22:03.066Z,33.27
2019-01-25T17:24:34.712Z,32.03
2019-01-25T17:27:06.473Z,32.00
2019-01-25T17:29:38.132Z,33.30
2019-01-25T17:32:09.777Z,35.47
2019-01-25T17:34:41.457Z,35.33
2019-01-25T17:37:13.094Z,36.07
2019-01-25T17:39:44.763Z,34.20
2019-01-25T17:42:16.418Z,36.70
2019-01-25T17:44:48.074Z,34.63
2019-01-25T17:47:19.734Z,35.07
2019-01-25T17:49:51.374Z,36.87
2019-01-25T17:52:23.016Z,36.53
2019-01-25T17:54:54.674Z,37.27
2019-01-25T17:57:26.315Z,38.97
2019-01-25T17:59:57.957Z,38.07
2019-01-25T18:02:29.611Z,37.63
2019-01-25T18:05:01.358Z,36.77
2019-01-25T18:07:33.020Z,38.87
2019-01-25T18:10:06.606Z,33.97
2019-01-25T18:12:38.255Z,33.73
2019-01-25T18:15:10.545Z,33.30
2019-01-25T18:17:42.446Z,35.60
2019-01-25T18:20:14.621Z,33.67
2019-01-25T18:22:46.322Z,34.20
2019-01-25T18:25:28.426Z,33.97
2019-01-25T18:28:00.740Z,29.57
2019-01-25T18:30:45.722Z,28.77
2019-01-25T18:33:17.454Z,32.57
2019-01-25T18:35:49.117Z,32.47
2019-01-25T18:38:20.798Z,30.50
2019-01-25T18:40:52.480Z,32.70
2019-01-25T18:43:24.121Z,27.87
2019-01-25T18:45:55.779Z,28.17
2019-01-25T18:48:27.421Z,31.37
2019-01-25T18:50:59.145Z,31.83
2019-01-25T18:53:30.792Z,30.70
2019-01-25T18:56:04.233Z,30.03
2019-01-25T18:58:35.898Z,26.13
2019-01-25T19:01:07.549Z,29.40
2019-01-25T19:03:39.285Z,27.50
2019-01-25T19:06:10.997Z,24.77
2019-01-25T19:08:42.771Z,25.00
2019-01-25T19:11:14.430Z,21.73
2019-01-25T19:13:46.064Z,23.63
2019-01-25T19:16:17.729Z,23.27
2019-01-25T19:18:49.482Z,22.40
2019-01-25T19:21:21.137Z,20.40
2019-01-25T19:23:52.761Z,23.63
2019-01-25T19:26:24.396Z,19.90
2019-01-25T19:28:56.049Z,20.83
2019-01-25T19:31:27.698Z,18.27
2019-01-25T19:33:59.337Z,16.13
2019-01-25T19:36:30.985Z,18.40
2019-01-25T19:39:07.779Z,17.13
2019-01-25T19:41:40.757Z,17.60
2019-01-25T19:44:12.610Z,16.93
2019-01-25T19:46:44.371Z,16.07
2019-01-25T19:49:16.002Z,17.17
2019-01-25T19:51:47.779Z,16.83
2019-01-25T19:54:19.442Z,23.07
2019-01-25T19:56:51.214Z,20.77
2019-01-25T19:59:22.864Z,20.30
2019-01-25T20:01:54.532Z,21.17
2019-01-25T20:04:26.195Z,15.43
2019-01-25T20:06:57.964Z,20.93
2019-01-25T20:09:29.621Z,18.00
2019-01-25T20:12:01.296Z,20.63
2019-01-25T20:14:32.963Z,20.37
2019-01-25T20:17:04.808Z,21.60
2019-01-25T20:19:36.453Z,19.03
2019-01-25T20:22:08.297Z,20.53
2019-01-25T20:24:39.950Z,20.93
2019-01-25T20:27:11.628Z,20.37
2019-01-25T20:29:43.272Z,16.60
2019-01-25T20:32:14.934Z,20.60
2019-01-25T20:34:46.582Z,21.17
2019-01-25T20:37:18.237Z,18.83
2019-01-25T20:39:49.891Z,21.63
2019-01-25T20:42:21.638Z,21.67
2019-01-25T20:44:53.322Z,19.80
2019-01-25T20:47:24.968Z,22.10
2019-01-25T20:49:56.602Z,20.10
2019-01-25T20:52:28.273Z,19.73
2019-01-25T20:55:00.020Z,19.80
2019-01-25T20:57:31.765Z,21.07
2019-01-25T21:00:08.578Z,18.73
2019-01-25T21:02:40.410Z,21.80
2019-01-25T21:05:12.577Z,19.10
2019-01-25T21:07:44.339Z,19.57
2019-01-25T21:10:17.622Z,17.60
2019-01-25T21:12:49.381Z,19.87
2019-01-25T21:15:22.218Z,20.73
2019-01-25T21:17:54.417Z,18.87
2019-01-25T21:20:28.743Z,20.53
2019-01-25T21:23:00.797Z,20.60
2019-01-25T21:25:32.650Z,19.23
2019-01-25T21:28:04.838Z,20.33
2019-01-25T21:30:36.685Z,19.33
2019-01-25T21:33:08.354Z,22.13
2019-01-25T21:35:39.992Z,16.70
2019-01-25T21:38:11.711Z,22.23
2019-01-25T21:40:43.508Z,19.90
2019-01-25T21:43:15.275Z,20.83
2019-01-25T21:45:46.905Z,19.70
2019-01-25T21:48:18.546Z,21.93
2019-01-25T21:50:50.185Z,22.37
2019-01-25T21:53:21.855Z,21.93
2019-01-25T21:55:53.490Z,22.03
2019-01-25T21:58:25.137Z,22.13
2019-01-25T22:00:56.764Z,21.50
2019-01-25T22:03:28.419Z,22.73
2019-01-25T22:06:00.177Z,21.53
2019-01-25T22:08:32.031Z,22.13
2019-01-25T22:11:04.111Z,22.30
2019-01-25T22:13:35.755Z,20.93
2019-01-25T22:16:07.395Z,20.43
2019-01-25T22:18:39.146Z,20.57
2019-01-25T22:21:10.785Z,19.23
2019-01-25T22:23:42.486Z,22.20
2019-01-25T22:26:14.155Z,20.13
2019-01-25T22:28:45.902Z,20.57
2019-01-25T22:31:17.536Z,18.30
2019-01-25T22:33:49.189Z,22.93
2019-01-25T22:36:20.829Z,21.37
2019-01-25T22:38:52.541Z,21.97
2019-01-25T22:41:24.309Z,22.97
2019-01-25T22:43:55.945Z,21.07
2019-01-25T22:46:27.589Z,21.17
2019-01-25T22:48:59.238Z,21.67
2019-01-25T22:51:30.913Z,21.00
2019-01-25T22:54:02.658Z,20.57
2019-01-25T22:56:34.338Z,20.30
2019-01-25T22:59:06.033Z,17.37
2019-01-25T23:01:38.010Z,21.03
2019-01-25T23:05:00.968Z,23.67
2019-01-25T23:07:32.833Z,22.67
2019-01-25T23:10:13.412Z,22.27
2019-01-25T23:12:45.097Z,20.13
2019-01-25T23:15:17.235Z,19.77
2019-01-25T23:17:48.872Z,23.87
2019-01-25T23:20:20.698Z,21.90
2019-01-25T23:22:52.348Z,22.43
2019-01-25T23:25:23.990Z,22.97
2019-01-25T23:27:55.647Z,23.47
2019-01-25T23:30:27.288Z,19.60
2019-01-25T23:32:58.936Z,18.93
2019-01-25T23:35:30.623Z,21.50
2019-01-25T23:38:02.349Z,23.17
2019-01-25T23:40:33.988Z,23.53
2019-01-25T23:43:05.637Z,25.47
2019-01-25T23:45:37.306Z,23.20
2019-01-25T23:48:08.961Z,22.60
2019-01-25T23:50:40.606Z,24.10
2019-01-25T23:53:12.270Z,21.67
2019-01-25T23:55:43.946Z,23.83
2019-01-25T23:58:15.613Z,22.23
